Time;durP1;ratioP1;P1;durP2;ratioP2;P2;SDS_P1;SDS_P2;PMS_P1;PMS_P2;Temp;Humidity;BMP_temperature;BMP_pressure;BME280_temperature;BME280_humidity;BME280_pressure;Samples;Min_cycle;Max_cycle;Signal;HPM_P1;HPM_P2
2024/01/20 00:00:41;;;;;;;8.00;3.30;;;;;;;-0.92;100.00;99453.73;107199;1281;60510;-64
2024/01/20 00:03:47;;;;;;;9.20;3.50;;;;;;;-0.92;100.00;99450.94;107264;1281;71699;-61
2024/01/20 00:06:35;;;;;;;8.60;3.40;;;;;;;-0.90;100.00;99454.36;107178;1281;66851;-62
2024/01/20 00:09:22;;;;;;;10.10;3.50;;;;;;;-0.89;100.00;99455.51;107245;1281;72427;-63
2024/01/20 00:12:21;;;;;;;8.90;3.60;;;;;;;-0.88;100.00;99450.09;107249;1281;57502;-61
2024/01/20 00:15:10;;;;;;;9.10;3.20;;;;;;;-0.87;100.00;99438.69;107251;1282;60130;-63
2024/01/20 00:17:59;;;;;;;9.30;2.90;;;;;;;-0.82;100.00;99438.17;107270;1281;73203;-62
2024/01/20 00:20:47;;;;;;;7.70;3.00;;;;;;;-0.79;100.00;99431.62;107299;1281;68611;-62
2024/01/20 00:23:37;;;;;;;7.20;2.90;;;;;;;-0.77;100.00;99427.36;107258;1281;72642;-62
2024/01/20 00:26:25;;;;;;;9.80;3.00;;;;;;;-0.75;100.00;99427.96;107047;1281;57405;-61
2024/01/20 00:29:14;;;;;;;8.00;3.20;;;;;;;-0.72;100.00;99423.64;107131;1281;60119;-66
2024/01/20 00:32:02;;;;;;;8.50;2.70;;;;;;;-0.69;100.00;99421.95;107392;1281;73226;-62
2024/01/20 00:34:50;;;;;;;7.20;2.40;;;;;;;-0.65;100.00;99423.91;107405;1281;67937;-62
2024/01/20 00:37:53;;;;;;;7.60;2.70;;;;;;;-0.62;100.00;99423.59;107392;1281;71118;-61
2024/01/20 00:40:42;;;;;;;7.00;2.70;;;;;;;-0.60;100.00;99420.38;107255;1281;58757;-62
2024/01/20 00:43:29;;;;;;;7.20;2.40;;;;;;;-0.58;100.00;99418.52;107188;1281;59310;-61
2024/01/20 00:46:17;;;;;;;6.80;2.40;;;;;;;-0.56;100.00;99416.89;107293;1281;73036;-61
2024/01/20 00:49:05;;;;;;;7.50;2.60;;;;;;;-0.56;100.00;99415.16;107093;1281;67906;-62
2024/01/20 00:51:53;;;;;;;8.30;2.30;;;;;;;-0.57;100.00;99418.50;107228;1281;73425;-63
2024/01/20 00:54:41;;;;;;;6.90;2.20;;;;;;;-0.57;100.00;99419.01;107203;1281;57471;-63
2024/01/20 00:57:29;;;;;;;6.40;2.30;;;;;;;-0.57;100.00;99417.77;107108;1281;60076;-62
2024/01/20 01:00:17;;;;;;;6.20;2.10;;;;;;;-0.54;100.00;99419.92;107244;1281;73755;-62
2024/01/20 01:03:05;;;;;;;7.30;2.40;;;;;;;-0.52;100.00;99416.19;107255;1281;66885;-63
2024/01/20 01:05:53;;;;;;;6.20;2.70;;;;;;;-0.50;100.00;99407.91;107117;1281;73701;-62
2024/01/20 01:08:41;;;;;;;6.90;2.50;;;;;;;-0.48;100.00;99412.55;107255;1281;58612;-61
2024/01/20 01:11:29;;;;;;;6.30;2.30;;;;;;;-0.46;100.00;99413.87;107231;1282;59121;-63
2024/01/20 01:14:18;;;;;;;6.10;2.30;;;;;;;-0.44;100.00;99414.14;107252;1281;71572;-64
2024/01/20 01:17:06;;;;;;;5.90;2.10;;;;;;;-0.43;100.00;99410.60;107253;1281;67510;-61
2024/01/20 01:19:54;;;;;;;6.30;2.40;;;;;;;-0.42;100.00;99403.03;107274;1281;72724;-62
2024/01/20 01:22:42;;;;;;;6.10;2.10;;;;;;;-0.39;100.00;99406.42;106956;1281;59800;-61
2024/01/20 01:25:30;;;;;;;7.00;2.50;;;;;;;-0.39;100.00;99402.54;106933;1281;59099;-61
2024/01/20 01:28:18;;;;;;;6.20;2.10;;;;;;;-0.37;100.00;99401.27;107262;1281;73784;-62
2024/01/20 01:31:06;;;;;;;6.40;2.30;;;;;;;-0.37;100.00;99397.80;107242;1281;67810;-62
2024/01/20 01:33:53;;;;;;;6.60;2.50;;;;;;;-0.36;100.00;99397.37;107117;1281;72750;-62
2024/01/20 01:36:41;;;;;;;5.00;1.60;;;;;;;-0.35;100.00;99398.20;107204;1281;59191;-62
2024/01/20 01:39:29;;;;;;;5.90;1.80;;;;;;;-0.33;100.00;99390.66;107247;1281;60371;-63
2024/01/20 01:42:17;;;;;;;6.80;2.20;;;;;;;-0.32;100.00;99390.27;107140;1281;73130;-62
2024/01/20 01:45:06;;;;;;;6.80;2.00;;;;;;;-0.33;100.00;99384.17;107217;1281;68128;-63
2024/01/20 01:47:55;;;;;;;7.20;1.90;;;;;;;-0.33;100.00;99375.45;107231;1281;72734;-62
2024/01/20 01:50:44;;;;;;;5.70;2.10;;;;;;;-0.34;100.00;99380.21;107203;1281;57906;-62
2024/01/20 01:53:33;;;;;;;6.80;2.00;;;;;;;-0.34;100.00;99372.19;107274;1281;60262;-61
2024/01/20 01:56:22;;;;;;;5.80;2.10;;;;;;;-0.32;100.00;99368.46;107047;1281;71568;-63
2024/01/20 01:59:10;;;;;;;6.70;2.10;;;;;;;-0.30;100.00;99371.00;107192;1281;68198;-60
2024/01/20 02:01:58;;;;;;;6.20;2.00;;;;;;;-0.30;100.00;99371.32;107232;1281;72837;-61
2024/01/20 02:04:46;;;;;;;6.50;1.90;;;;;;;-0.30;100.00;99368.71;107220;1281;58944;-61
2024/01/20 02:07:35;;;;;;;6.20;2.00;;;;;;;-0.31;100.00;99371.91;107099;1281;59788;-61
2024/01/20 02:10:23;;;;;;;5.90;2.20;;;;;;;-0.31;100.00;99364.77;107248;1281;73033;-63
2024/01/20 02:13:11;;;;;;;5.90;2.30;;;;;;;-0.31;100.00;99363.54;107266;1281;68023;-61
2024/01/20 02:16:01;;;;;;;5.40;2.20;;;;;;;-0.29;100.00;99362.75;107246;1281;72486;-61
2024/01/20 02:18:49;;;;;;;6.40;2.40;;;;;;;-0.27;100.00;99365.43;107174;1281;58840;-61
2024/01/20 02:21:39;;;;;;;5.90;2.30;;;;;;;-0.28;100.00;99363.19;107140;1281;60466;-61
2024/01/20 02:24:27;;;;;;;6.10;2.10;;;;;;;-0.27;100.00;99362.81;107233;1281;71684;-61
2024/01/20 02:27:18;;;;;;;6.40;2.00;;;;;;;-0.27;100.00;99361.59;107286;1281;68043;-61
2024/01/20 02:30:07;;;;;;;5.90;2.40;;;;;;;-0.26;100.00;99359.98;107134;1281;74005;-64
2024/01/20 02:32:55;;;;;;;6.10;1.90;;;;;;;-0.26;100.00;99360.01;107200;1281;57513;-62
2024/01/20 02:35:43;;;;;;;5.00;1.80;;;;;;;-0.31;100.00;99350.29;107232;1281;60583;-61
2024/01/20 02:38:31;;;;;;;5.40;1.70;;;;;;;-0.30;100.00;99355.12;107250;1281;73075;-62
2024/01/20 02:41:19;;;;;;;5.40;1.70;;;;;;;-0.32;100.00;99351.70;107243;1281;66820;-62
2024/01/20 02:44:08;;;;;;;6.40;1.90;;;;;;;-0.31;100.00;99347.31;106400;1281;1002976;-61
2024/01/20 02:46:56;;;;;;;5.20;1.60;;;;;;;-0.30;100.00;99335.39;107066;1281;58776;-62
2024/01/20 02:49:44;;;;;;;4.80;1.50;;;;;;;-0.30;100.00;99331.94;107212;1281;61616;-61
2024/01/20 02:52:33;;;;;;;5.10;1.60;;;;;;;-0.30;100.00;99326.19;107241;1281;74130;-61
2024/01/20 02:55:21;;;;;;;6.10;1.80;;;;;;;-0.29;100.00;99324.91;107269;1281;67945;-61
2024/01/20 02:58:09;;;;;;;5.30;2.00;;;;;;;-0.29;100.00;99315.85;107222;1281;72885;-61
2024/01/20 03:00:58;;;;;;;5.00;1.50;;;;;;;-0.31;100.00;99307.05;107166;1281;58770;-61
2024/01/20 03:03:46;;;;;;;5.20;1.70;;;;;;;-0.32;100.00;99305.20;107224;1281;60411;-62
2024/01/20 03:06:34;;;;;;;4.90;1.60;;;;;;;-0.31;100.00;99303.92;107111;1281;72856;-63
2024/01/20 03:09:23;;;;;;;5.40;1.70;;;;;;;-0.31;100.00;99303.91;107275;1281;66631;-61
2024/01/20 03:12:12;;;;;;;4.60;1.50;;;;;;;-0.31;100.00;99303.58;107236;1281;73737;-60
2024/01/20 03:15:00;;;;;;;5.80;2.30;;;;;;;-0.34;100.00;99297.06;107099;1281;58876;-61
2024/01/20 03:17:48;;;;;;;5.60;1.70;;;;;;;-0.33;100.00;99293.55;107061;1281;58104;-62
2024/01/20 03:20:37;;;;;;;6.20;1.90;;;;;;;-0.33;100.00;99293.73;107267;1281;73075;-62
2024/01/20 03:23:26;;;;;;;4.90;1.60;;;;;;;-0.34;100.00;99285.02;107250;1281;66644;-61
2024/01/20 03:26:14;;;;;;;5.10;1.80;;;;;;;-0.34;100.00;99279.29;107192;1281;72760;-64
2024/01/20 03:29:02;;;;;;;5.30;1.80;;;;;;;-0.32;100.00;99280.59;107215;1281;58817;-61
2024/01/20 03:31:51;;;;;;;4.90;1.50;;;;;;;-0.32;100.00;99270.14;107059;1281;60418;-62
2024/01/20 03:34:39;;;;;;;5.40;1.80;;;;;;;-0.32;100.00;99268.36;107063;1281;74179;-62
2024/01/20 03:37:29;;;;;;;5.10;1.70;;;;;;;-0.31;100.00;99258.09;107159;1281;68048;-61
2024/01/20 03:40:17;;;;;;;5.40;1.90;;;;;;;-0.30;100.00;99259.06;107153;1281;72745;-62
2024/01/20 03:43:05;;;;;;;4.80;1.30;;;;;;;-0.29;100.00;99255.51;107123;1281;58643;-63
2024/01/20 03:45:55;;;;;;;4.70;1.30;;;;;;;-0.26;100.00;99255.91;107128;1281;60410;-61
2024/01/20 03:48:44;;;;;;;4.80;1.30;;;;;;;-0.24;100.00;99247.42;106963;1281;70835;-63
2024/01/20 03:51:32;;;;;;;5.40;1.50;;;;;;;-0.20;100.00;99246.41;107249;1281;68097;-62
2024/01/20 03:54:20;;;;;;;5.10;1.90;;;;;;;-0.16;100.00;99246.04;107271;1281;71493;-63
2024/01/20 03:57:08;;;;;;;5.60;1.60;;;;;;;-0.12;100.00;99255.27;107250;1281;58575;-63
2024/01/20 03:59:57;;;;;;;6.90;1.90;;;;;;;-0.08;100.00;99252.62;107289;1281;59086;-63
2024/01/20 04:02:45;;;;;;;6.10;2.20;;;;;;;-0.05;100.00;99241.85;107262;1281;73097;-62
2024/01/20 04:05:33;;;;;;;5.40;1.80;;;;;;;-0.00;100.00;99240.08;107217;1281;66946;-63
2024/01/20 04:08:21;;;;;;;9.90;2.40;;;;;;;0.04;100.00;99240.95;107118;1281;71878;-63
2024/01/20 04:11:10;;;;;;;7.20;2.00;;;;;;;0.07;100.00;99240.58;107227;1281;59886;-61
2024/01/20 04:13:58;;;;;;;6.80;1.90;;;;;;;0.10;100.00;99247.98;107245;1281;60518;-61
2024/01/20 04:16:47;;;;;;;8.90;2.20;;;;;;;0.11;100.00;99243.17;107251;1281;71839;-62
2024/01/20 04:19:35;;;;;;;8.40;2.60;;;;;;;0.13;100.00;99240.81;107235;1281;67163;-63
2024/01/20 04:22:23;;;;;;;8.80;2.50;;;;;;;0.15;100.00;99243.69;107208;1280;73531;-63
2024/01/20 04:25:13;;;;;;;9.80;2.80;;;;;;;0.19;100.00;99242.67;107135;1280;58853;-62
2024/01/20 04:28:02;;;;;;;14.00;2.60;;;;;;;0.22;100.00;99242.67;107279;1281;60406;-62
2024/01/20 04:30:50;;;;;;;8.90;2.50;;;;;;;0.23;100.00;99240.35;107277;1279;73096;-64
2024/01/20 04:33:39;;;;;;;8.00;3.00;;;;;;;0.24;100.00;99244.50;107354;1281;67851;-61
2024/01/20 04:36:27;;;;;;;15.50;3.90;;;;;;;0.26;100.00;99238.30;107335;1281;71760;-62
2024/01/20 04:39:16;;;;;;;10.80;3.10;;;;;;;0.28;100.00;99229.46;107171;1280;58677;-62
2024/01/20 04:42:05;;;;;;;11.50;2.80;;;;;;;0.30;100.00;99242.10;107370;1280;60530;-61
2024/01/20 04:44:53;;;;;;;11.20;2.70;;;;;;;0.33;100.00;99236.91;107325;1281;73057;-63
2024/01/20 04:47:41;;;;;;;11.50;3.50;;;;;;;0.33;100.00;99236.05;107188;1281;68962;-61
2024/01/20 04:50:29;;;;;;;9.40;3.30;;;;;;;0.33;100.00;99227.80;107174;1281;71794;-63
2024/01/20 04:53:17;;;;;;;11.40;2.80;;;;;;;0.34;100.00;99233.00;107244;1280;59560;-63
2024/01/20 04:56:06;;;;;;;8.50;2.60;;;;;;;0.34;100.00;99228.83;107328;1280;60397;-62
2024/01/20 04:58:56;;;;;;;7.80;2.20;;;;;;;0.32;100.00;99228.38;107305;1280;73187;-62
2024/01/20 05:01:48;;;;;;;10.30;2.70;;;;;;;0.32;100.00;99224.93;107153;1280;68951;-62
2024/01/20 05:04:36;;;;;;;9.10;2.40;;;;;;;0.32;100.00;99230.32;107316;1280;73915;-63
2024/01/20 05:07:25;;;;;;;8.00;2.40;;;;;;;0.31;100.00;99224.94;107177;1279;57671;-62
2024/01/20 05:10:13;;;;;;;22.60;2.70;;;;;;;0.33;100.00;99233.06;106717;1284;60452;-62
2024/01/20 05:13:03;;;;;;;7.30;2.30;;;;;;;0.33;100.00;99229.71;106938;1283;73177;-63
2024/01/20 05:15:53;;;;;;;7.70;2.60;;;;;;;0.35;100.00;99241.19;106185;1284;1002359;-61
2024/01/20 05:18:42;;;;;;;9.50;2.40;;;;;;;0.35;100.00;99235.95;106932;1283;72481;-62
2024/01/20 05:21:30;;;;;;;7.70;2.20;;;;;;;0.35;100.00;99243.62;107053;1283;57878;-62
2024/01/20 05:24:18;;;;;;;11.00;2.80;;;;;;;0.37;100.00;99244.23;107031;1283;59072;-62
2024/01/20 05:27:07;;;;;;;9.20;2.60;;;;;;;0.39;100.00;99242.94;107022;1283;73125;-65
2024/01/20 05:29:55;;;;;;;9.10;2.30;;;;;;;0.41;100.00;99245.42;106878;1283;66393;-64
2024/01/20 05:32:43;;;;;;;10.90;2.90;;;;;;;0.43;100.00;99237.48;106931;1283;72935;-62
2024/01/20 05:35:37;;;;;;;8.00;2.30;;;;;;;0.45;100.00;99248.70;106988;1282;58781;-63
2024/01/20 05:38:25;;;;;;;8.90;2.80;;;;;;;0.47;100.00;99252.10;107100;1282;60380;-62
2024/01/20 05:41:15;;;;;;;9.10;2.50;;;;;;;0.49;100.00;99250.79;107216;1279;72995;-62
2024/01/20 05:44:03;;;;;;;10.60;2.80;;;;;;;0.50;100.00;99242.86;107401;1281;69322;-66
2024/01/20 05:46:52;;;;;;;9.60;2.30;;;;;;;0.53;100.00;99238.55;107325;1280;72727;-64
2024/01/20 05:49:40;;;;;;;9.70;2.70;;;;;;;0.55;100.00;99237.23;107242;1280;59406;-63
2024/01/20 05:52:28;;;;;;;9.60;2.30;;;;;;;0.57;100.00;99249.88;107404;1279;61665;-63
2024/01/20 05:55:17;;;;;;;10.60;2.50;;;;;;;0.58;100.00;99246.70;107422;1280;74141;-64
2024/01/20 05:58:05;;;;;;;10.60;2.90;;;;;;;0.57;100.00;99247.42;107645;1280;65607;-63
2024/01/20 06:00:54;;;;;;;11.20;2.70;;;;;;;0.58;100.00;99250.89;107621;1279;71362;-65
2024/01/20 06:03:42;;;;;;;11.90;2.70;;;;;;;0.57;100.00;99250.23;107375;1279;58918;-64
2024/01/20 06:06:32;;;;;;;8.50;2.80;;;;;;;0.55;100.00;99251.91;107473;1280;58795;-65
2024/01/20 06:09:20;;;;;;;9.50;2.40;;;;;;;0.55;100.00;99250.83;107425;1280;72888;-64
2024/01/20 06:12:08;;;;;;;8.80;2.60;;;;;;;0.56;100.00;99255.34;107267;1280;68147;-63
2024/01/20 06:14:57;;;;;;;8.80;3.10;;;;;;;0.58;100.00;99243.52;107321;1280;72775;-64
2024/01/20 06:17:45;;;;;;;8.40;2.80;;;;;;;0.62;100.00;99249.66;107268;1279;59402;-64
2024/01/20 06:20:33;;;;;;;9.40;2.70;;;;;;;0.64;100.00;99246.20;107391;1280;60187;-63
2024/01/20 06:23:23;;;;;;;7.30;2.70;;;;;;;0.66;100.00;99243.98;107280;1280;73391;-64
2024/01/20 06:26:10;;;;;;;12.30;3.00;;;;;;;0.70;100.00;99243.66;107167;1281;68987;-64
2024/01/20 06:28:59;;;;;;;13.50;2.90;;;;;;;0.72;100.00;99250.02;107227;1280;72881;-65
2024/01/20 06:31:47;;;;;;;13.80;4.20;;;;;;;0.73;100.00;99256.59;107082;1280;58916;-64
2024/01/20 06:34:35;;;;;;;12.40;3.60;;;;;;;0.75;100.00;99266.79;107294;1280;60423;-65
2024/01/20 06:37:23;;;;;;;6.90;2.40;;;;;;;0.74;100.00;99265.44;107280;1279;73058;-64
2024/01/20 06:40:11;;;;;;;13.30;2.90;;;;;;;0.72;100.00;99272.70;107117;1280;66585;-63
2024/01/20 06:43:00;;;;;;;10.60;2.90;;;;;;;0.71;100.00;99262.11;107233;1282;72763;-66
2024/01/20 06:45:48;;;;;;;8.60;3.00;;;;;;;0.69;100.00;99270.77;106452;1280;1002478;-62
2024/01/20 06:48:37;;;;;;;13.00;3.00;;;;;;;0.69;100.00;99262.73;107287;1280;61376;-68
2024/01/20 06:51:27;;;;;;;8.30;2.30;;;;;;;0.70;100.00;99268.42;106169;1281;1002323;-62
2024/01/20 06:54:15;;;;;;;9.60;2.90;;;;;;;0.73;100.00;99259.42;107029;1281;67952;-65
2024/01/20 06:57:03;;;;;;;8.30;2.40;;;;;;;0.73;100.00;99254.67;107126;1281;72507;-63
2024/01/20 06:59:52;;;;;;;8.90;2.60;;;;;;;0.81;100.00;99273.83;107177;1281;57664;-65
2024/01/20 07:02:41;;;;;;;9.90;2.40;;;;;;;0.84;100.00;99274.39;107217;1281;61167;-64
2024/01/20 07:05:29;;;;;;;13.70;3.20;;;;;;;0.87;100.00;99276.85;107234;1281;73140;-64
2024/01/20 07:08:18;;;;;;;8.90;2.70;;;;;;;0.89;100.00;99276.60;107304;1279;66429;-64
2024/01/20 07:11:11;;;;;;;11.00;3.40;;;;;;;0.91;100.00;99281.71;106355;1281;1002136;-63
2024/01/20 07:13:59;;;;;;;8.70;2.30;;;;;;;0.93;100.00;99275.17;107200;1281;58650;-65
2024/01/20 07:16:47;;;;;;;9.30;2.80;;;;;;;0.93;100.00;99280.94;107048;1280;59068;-63
2024/01/20 07:19:35;;;;;;;8.20;2.80;;;;;;;0.93;100.00;99280.05;107278;1281;73944;-66
2024/01/20 07:22:25;;;;;;;10.90;2.70;;;;;;;0.92;100.00;99281.13;107098;1281;68935;-65
2024/01/20 07:25:13;;;;;;;13.20;2.60;;;;;;;0.92;100.00;99291.11;107263;1280;72781;-63
2024/01/20 07:28:01;;;;;;;6.60;2.10;;;;;;;0.90;100.00;99280.52;107188;1280;57429;-65
2024/01/20 07:30:49;;;;;;;9.80;2.50;;;;;;;0.90;100.00;99287.20;106945;1281;60060;-64
2024/01/20 07:33:37;;;;;;;9.30;2.50;;;;;;;0.92;100.00;99283.79;107267;1281;73181;-64
2024/01/20 07:36:25;;;;;;;8.20;2.30;;;;;;;0.91;100.00;99294.68;107289;1280;66719;-65
2024/01/20 07:39:14;;;;;;;7.70;2.50;;;;;;;0.86;100.00;99290.70;106997;1281;71472;-64
2024/01/20 07:42:03;;;;;;;8.00;2.50;;;;;;;0.84;100.00;99295.70;107039;1280;59806;-65
2024/01/20 07:44:52;;;;;;;10.80;2.20;;;;;;;0.84;100.00;99293.78;107306;1279;59079;-64
2024/01/20 07:47:40;;;;;;;7.40;2.00;;;;;;;0.82;100.00;99294.19;107213;1280;70821;-65
2024/01/20 07:50:29;;;;;;;9.40;2.90;;;;;;;0.79;100.00;99294.90;107245;1280;68935;-65
2024/01/20 07:53:17;;;;;;;8.40;2.80;;;;;;;0.80;100.00;99307.61;107225;1280;73832;-65
2024/01/20 07:56:09;;;;;;;10.10;2.00;;;;;;;0.80;100.00;99304.09;107295;1280;58915;-69
2024/01/20 07:58:57;;;;;;;8.00;2.70;;;;;;;0.84;100.00;99313.51;107357;1280;61438;-67
2024/01/20 08:01:45;;;;;;;9.80;2.30;;;;;;;0.85;100.00;99313.98;107348;1280;73977;-67
2024/01/20 08:04:33;;;;;;;7.60;2.30;;;;;;;0.86;100.00;99307.84;107341;1280;66542;-65
2024/01/20 08:07:23;;;;;;;8.10;2.80;;;;;;;0.84;100.00;99317.52;107232;1282;72659;-66
2024/01/20 08:10:11;;;;;;;10.60;3.00;;;;;;;0.78;100.00;99309.61;107054;1280;59832;-65
2024/01/20 08:12:59;;;;;;;7.70;2.20;;;;;;;0.72;100.00;99311.30;107290;1280;59042;-65
2024/01/20 08:15:47;;;;;;;8.90;2.80;;;;;;;0.66;100.00;99314.37;107309;1280;71915;-66
2024/01/20 08:18:36;;;;;;;8.00;2.60;;;;;;;0.63;100.00;99304.38;107322;1280;68635;-64
2024/01/20 08:21:24;;;;;;;6.90;2.10;;;;;;;0.62;100.00;99300.61;107286;1280;72765;-64
2024/01/20 08:24:13;;;;;;;8.30;2.70;;;;;;;0.65;100.00;99305.00;107291;1280;57484;-65
2024/01/20 08:27:02;;;;;;;8.30;2.60;;;;;;;0.66;100.00;99303.20;107222;1280;59079;-62
2024/01/20 08:29:51;;;;;;;6.80;2.40;;;;;;;0.67;100.00;99305.24;107272;1280;73561;-64
2024/01/20 08:32:40;;;;;;;7.90;2.30;;;;;;;0.67;100.00;99301.77;107421;1281;66914;-64
2024/01/20 08:35:28;;;;;;;8.80;3.10;;;;;;;0.65;100.00;99310.92;107338;1279;71765;-65
2024/01/20 08:38:16;;;;;;;7.30;2.40;;;;;;;0.62;100.00;99317.70;107020;1280;57893;-67
2024/01/20 08:41:11;;;;;;;8.40;2.90;;;;;;;0.56;100.00;99322.02;107390;1279;61168;-65
2024/01/20 08:43:58;;;;;;;7.40;2.50;;;;;;;0.50;100.00;99316.52;107297;1279;72949;-64
2024/01/20 08:46:47;;;;;;;8.80;2.80;;;;;;;0.42;100.00;99316.90;107407;1279;68999;-64
2024/01/20 08:49:36;;;;;;;6.40;2.40;;;;;;;0.37;100.00;99310.04;107429;1279;72759;-63
2024/01/20 08:52:23;;;;;;;6.70;2.00;;;;;;;0.33;100.00;99311.41;107363;1279;57372;-63
2024/01/20 08:55:12;;;;;;;6.60;2.10;;;;;;;0.34;100.00;99318.17;107180;1279;58871;-62
2024/01/20 08:58:01;;;;;;;6.70;2.20;;;;;;;0.35;100.00;99320.05;107173;1280;73027;-63
2024/01/20 09:00:49;;;;;;;8.10;2.60;;;;;;;0.34;100.00;99317.81;107246;1280;67244;-62
2024/01/20 09:03:38;;;;;;;6.40;2.70;;;;;;;0.30;100.00;99312.08;107360;1280;72833;-63
2024/01/20 09:06:27;;;;;;;7.20;2.50;;;;;;;0.25;100.00;99317.91;107363;1279;58707;-62
2024/01/20 09:09:15;;;;;;;7.20;2.40;;;;;;;0.24;100.00;99315.14;107282;1279;60482;-63
2024/01/20 09:12:03;;;;;;;8.30;3.30;;;;;;;0.23;100.00;99317.46;107289;1280;73147;-63
2024/01/20 09:14:52;;;;;;;7.60;2.50;;;;;;;0.26;100.00;99320.81;107348;1280;67962;-63
2024/01/20 09:17:40;;;;;;;8.00;2.70;;;;;;;0.26;100.00;99319.08;107440;1279;73735;-62
2024/01/20 09:20:28;;;;;;;10.00;2.90;;;;;;;0.26;100.00;99323.10;107330;1279;58721;-63
2024/01/20 09:23:16;;;;;;;6.10;2.00;;;;;;;0.24;100.00;99333.33;107336;1280;60413;-64
2024/01/20 09:26:04;;;;;;;7.50;2.40;;;;;;;0.20;100.00;99334.38;107303;1281;72964;-68
2024/01/20 09:28:52;;;;;;;6.70;2.50;;;;;;;0.20;100.00;99329.67;107205;1279;66800;-67
2024/01/20 09:31:42;;;;;;;6.30;2.60;;;;;;;0.22;100.00;99341.08;107109;1279;241554;-69
2024/01/20 09:34:30;;;;;;;9.60;2.90;;;;;;;0.20;100.00;99346.77;106955;1279;59155;-69
2024/01/20 09:37:17;;;;;;;7.00;2.80;;;;;;;0.18;100.00;99357.15;107265;1280;61298;-66
2024/01/20 09:40:06;;;;;;;9.40;4.30;;;;;;;0.18;100.00;99359.60;107276;1279;74017;-71
2024/01/20 09:42:54;;;;;;;7.20;2.90;;;;;;;0.21;100.00;99363.83;107077;1280;66376;-62
2024/01/20 09:45:42;;;;;;;7.40;2.40;;;;;;;0.22;100.00;99358.89;107113;1280;73514;-62
2024/01/20 09:48:30;;;;;;;6.40;2.60;;;;;;;0.29;100.00;99360.31;107223;1280;58779;-63
2024/01/20 09:51:24;;;;;;;7.10;3.20;;;;;;;0.32;100.00;99356.32;107090;1280;59535;-62
2024/01/20 09:54:14;;;;;;;7.20;2.50;;;;;;;0.34;100.00;99347.48;107350;1280;73415;-64
2024/01/20 09:57:02;;;;;;;7.10;2.70;;;;;;;0.35;100.00;99354.60;107119;1280;68750;-64
2024/01/20 09:59:52;;;;;;;8.30;2.80;;;;;;;0.34;100.00;99359.88;107087;1280;71706;-63
2024/01/20 10:02:41;;;;;;;6.50;2.30;;;;;;;0.35;100.00;99360.90;107070;1283;58597;-64
2024/01/20 10:05:31;;;;;;;8.00;2.10;;;;;;;0.33;100.00;99365.71;107348;1279;61406;-63
2024/01/20 10:08:19;;;;;;;6.90;2.20;;;;;;;0.31;100.00;99370.30;107369;1280;72871;-63
2024/01/20 10:11:06;;;;;;;6.00;2.00;;;;;;;0.26;100.00;99372.83;107284;1279;66567;-62
2024/01/20 10:13:55;;;;;;;7.00;2.10;;;;;;;0.28;100.00;99368.70;107318;1283;73924;-64
2024/01/20 10:16:42;;;;;;;6.60;2.10;;;;;;;0.30;100.00;99380.13;107118;1279;57363;-66
2024/01/20 10:19:30;;;;;;;9.10;2.30;;;;;;;0.33;100.00;99376.16;107162;1280;60085;-63
2024/01/20 10:22:19;;;;;;;7.90;2.80;;;;;;;0.36;100.00;99375.52;107134;1280;72087;-66
2024/01/20 10:25:07;;;;;;;9.00;2.50;;;;;;;0.31;100.00;99375.40;107393;1279;65461;-64
2024/01/20 10:27:55;;;;;;;7.00;2.30;;;;;;;0.29;100.00;99385.75;107406;1279;72460;-64
2024/01/20 10:30:43;;;;;;;8.90;2.80;;;;;;;0.29;100.00;99381.57;107191;1280;58702;-64
2024/01/20 10:33:31;;;;;;;7.00;2.10;;;;;;;0.30;100.00;99389.56;107420;1279;59030;-64
2024/01/20 10:36:22;;;;;;;8.50;2.80;;;;;;;0.31;100.00;99390.23;107393;1280;73436;-64
2024/01/20 10:39:17;;;;;;;10.10;3.10;;;;;;;0.29;100.00;99393.08;107391;1280;66636;-63
2024/01/20 10:42:14;;;;;;;7.40;2.60;;;;;;;0.29;100.00;99401.80;107190;1279;72471;-65
2024/01/20 10:45:08;;;;;;;8.30;2.70;;;;;;;0.33;100.00;99422.39;107303;1279;59184;-64
2024/01/20 10:48:16;;;;;;;7.10;2.40;;;;;;;0.31;100.00;99404.17;107237;1280;58075;-67
2024/01/20 10:51:11;;;;;;;9.30;3.20;;;;;;;0.37;100.00;99406.88;107424;1279;73037;-63
2024/01/20 10:54:02;;;;;;;8.30;2.80;;;;;;;0.42;100.00;99423.40;107226;1280;68650;-63
2024/01/20 10:56:50;;;;;;;8.00;2.60;;;;;;;0.42;100.00;99423.93;107077;1280;72836;-64
2024/01/20 10:59:42;;;;;;;7.90;2.50;;;;;;;0.44;100.00;99431.15;107342;1280;58611;-63
2024/01/20 11:02:31;;;;;;;6.70;2.00;;;;;;;0.45;100.00;99434.10;107100;1280;60323;-64
2024/01/20 11:05:26;;;;;;;8.30;2.50;;;;;;;0.46;100.00;99435.95;107241;1280;72906;-65
2024/01/20 11:08:24;;;;;;;8.20;2.50;;;;;;;0.49;100.00;99433.36;107204;1280;66683;-64
2024/01/20 11:11:12;;;;;;;9.20;2.50;;;;;;;0.56;100.00;99442.33;107100;1280;71213;-64
2024/01/20 11:14:01;;;;;;;9.20;3.00;;;;;;;0.58;100.00;99447.95;107266;1280;58529;-64
2024/01/20 11:16:50;;;;;;;7.60;2.40;;;;;;;0.58;100.00;99455.29;107076;1280;61459;-62
2024/01/20 11:19:38;;;;;;;7.00;2.20;;;;;;;0.60;100.00;99450.86;107274;1280;74591;-63
2024/01/20 11:22:38;;;;;;;6.10;2.00;;;;;;;0.60;100.00;99454.84;107147;1280;67977;-63
2024/01/20 11:25:31;;;;;;;7.00;2.50;;;;;;;0.55;100.00;99461.38;107103;1280;73602;-64
2024/01/20 11:28:30;;;;;;;7.30;2.30;;;;;;;0.56;100.00;99476.00;107303;1280;57373;-64
2024/01/20 11:31:20;;;;;;;7.10;2.00;;;;;;;0.57;100.00;99469.48;107165;1280;60085;-62
2024/01/20 11:34:08;;;;;;;6.00;2.00;;;;;;;0.66;100.00;99476.06;107353;1279;73907;-63
2024/01/20 11:36:59;;;;;;;6.10;1.90;;;;;;;0.71;100.00;99485.81;107334;1279;66653;-65
2024/01/20 11:39:46;;;;;;;6.80;2.00;;;;;;;0.65;100.00;99493.92;107087;1279;71009;-65
2024/01/20 11:42:35;;;;;;;6.30;1.50;;;;;;;0.58;100.00;99502.30;107289;1280;57411;-64
2024/01/20 11:45:22;;;;;;;6.20;1.70;;;;;;;0.46;100.00;99498.80;107008;1280;59393;-64
2024/01/20 11:48:11;;;;;;;6.30;2.00;;;;;;;0.39;100.00;99493.52;107101;1279;72243;-63
2024/01/20 11:51:02;;;;;;;6.60;2.00;;;;;;;0.35;100.00;99501.54;106999;1280;66641;-64
2024/01/20 11:53:50;;;;;;;6.60;2.30;;;;;;;0.34;100.00;99501.24;107243;1279;74186;-63
2024/01/20 11:56:38;;;;;;;8.60;2.20;;;;;;;0.36;100.00;99513.04;107035;1280;59476;-64
2024/01/20 11:59:25;;;;;;;6.70;1.90;;;;;;;0.37;100.00;99531.15;107309;1280;60998;-63
2024/01/20 12:02:15;;;;;;;6.10;1.70;;;;;;;0.35;100.00;99541.02;106964;1279;71802;-64
2024/01/20 12:05:04;;;;;;;5.70;1.70;;;;;;;0.31;100.00;99543.62;107130;1279;66700;-64
2024/01/20 12:08:04;;;;;;;4.10;1.20;;;;;;;0.28;100.00;99545.66;107252;1280;71466;-63
2024/01/20 12:10:51;;;;;;;6.10;1.40;;;;;;;0.23;100.00;99549.36;107189;1283;57442;-64
2024/01/20 12:13:39;;;;;;;5.70;1.70;;;;;;;0.21;100.00;99554.86;107336;1279;59205;-64
2024/01/20 12:16:28;;;;;;;6.40;2.10;;;;;;;0.20;100.00;99557.20;107322;1279;71406;-65
2024/01/20 12:19:16;;;;;;;6.80;2.00;;;;;;;0.20;100.00;99562.41;107306;1279;66527;-63
2024/01/20 12:22:14;;;;;;;6.40;1.90;;;;;;;0.24;100.00;99571.82;106414;1279;1002352;-64
2024/01/20 12:25:02;;;;;;;7.50;1.80;;;;;;;0.27;100.00;99581.48;107138;1280;57292;-64
2024/01/20 12:27:51;;;;;;;7.00;1.90;;;;;;;0.29;100.00;99585.92;107096;1279;58938;-64
2024/01/20 12:30:39;;;;;;;7.60;2.10;;;;;;;0.32;100.00;99588.73;106980;1279;72887;-64
2024/01/20 12:33:27;;;;;;;7.90;2.50;;;;;;;0.36;100.00;99595.59;107202;1279;67899;-65
2024/01/20 12:36:14;;;;;;;12.00;2.70;;;;;;;0.39;100.00;99611.85;107304;1279;71503;-65
2024/01/20 12:39:03;;;;;;;9.00;2.20;;;;;;;0.44;100.00;99616.20;107102;1279;59091;-62
2024/01/20 12:41:53;;;;;;;11.00;2.60;;;;;;;0.49;100.00;99624.18;107322;1279;60555;-63
2024/01/20 12:44:41;;;;;;;7.70;2.00;;;;;;;0.53;100.00;99628.55;107349;1279;72915;-64
2024/01/20 12:47:30;;;;;;;9.00;2.20;;;;;;;0.58;100.00;99633.73;107303;1279;65652;-63
2024/01/20 12:50:18;;;;;;;6.10;1.80;;;;;;;0.70;100.00;99641.41;107361;1279;73794;-67
2024/01/20 12:53:06;;;;;;;6.60;2.10;;;;;;;0.89;100.00;99654.57;107327;1280;57349;-65
2024/01/20 12:55:55;;;;;;;8.50;1.80;;;;;;;0.98;100.00;99661.52;107242;1280;59091;-63
2024/01/20 12:58:43;;;;;;;10.00;1.70;;;;;;;1.09;100.00;99663.83;107141;1279;73611;-63
2024/01/20 13:01:31;;;;;;;8.00;1.70;;;;;;;1.16;100.00;99675.04;107318;1280;66609;-64